createdAt,value
2022-08-24T00:02:17.829Z,20.80
2022-08-24T00:05:10.509Z,20.82
2022-08-24T00:11:26.290Z,21.32
2022-08-24T00:13:46.238Z,21.02
2022-08-24T00:16:43.011Z,21.02
2022-08-24T00:19:15.445Z,21.35
2022-08-24T00:22:24.531Z,21.54
2022-08-24T00:25:11.515Z,21.38
2022-08-24T00:27:39.557Z,21.42
2022-08-24T00:30:09.503Z,21.12
2022-08-24T00:32:37.947Z,20.99
2022-08-24T00:35:06.285Z,21.01
2022-08-24T00:37:34.123Z,21.25
2022-08-24T00:40:03.501Z,21.64
2022-08-24T00:42:31.116Z,21.54
2022-08-24T00:44:58.614Z,21.58
2022-08-24T00:47:29.856Z,21.30
2022-08-24T00:50:00.955Z,21.10
2022-08-24T00:52:32.197Z,20.91
2022-08-24T00:55:03.421Z,20.75
2022-08-24T00:57:34.998Z,20.71
2022-08-24T01:00:11.169Z,20.64
2022-08-24T01:02:41.972Z,20.56
2022-08-24T01:05:11.237Z,20.41
2022-08-24T01:07:40.139Z,20.34
2022-08-24T01:10:11.862Z,20.26
2022-08-24T01:12:41.007Z,20.28
2022-08-24T01:15:16.453Z,20.55
2022-08-24T01:18:02.214Z,20.48
2022-08-24T01:20:29.836Z,20.47
2022-08-24T01:23:03.512Z,20.47
2022-08-24T01:25:34.259Z,20.35
2022-08-24T01:28:06.667Z,20.27
2022-08-24T01:30:36.118Z,20.32
2022-08-24T01:33:06.996Z,20.60
2022-08-24T01:35:36.580Z,20.72
2022-08-24T01:38:08.287Z,20.70
2022-08-24T01:40:38.945Z,20.72
2022-08-24T01:43:07.752Z,20.67
2022-08-24T01:45:35.502Z,20.96
2022-08-24T01:48:03.645Z,20.93
2022-08-24T01:50:32.074Z,20.96
2022-08-24T01:53:05.255Z,21.01
2022-08-24T01:55:33.854Z,21.17
2022-08-24T01:58:02.974Z,21.34
2022-08-24T02:00:30.693Z,21.30
2022-08-24T02:02:58.377Z,21.13
2022-08-24T02:05:26.443Z,21.22
2022-08-24T02:07:53.996Z,21.20
2022-08-24T02:10:23.439Z,21.34
2022-08-24T02:12:57.849Z,21.35
2022-08-24T02:15:29.471Z,21.40
2022-08-24T02:17:57.073Z,21.30
2022-08-24T02:20:24.811Z,21.22
2022-08-24T02:22:53.421Z,21.24
2022-08-24T02:25:21.657Z,21.41
2022-08-24T02:27:49.309Z,21.46
2022-08-24T02:30:17.494Z,21.48
2022-08-24T02:32:47.135Z,21.54
2022-08-24T02:35:14.665Z,21.52
2022-08-24T02:37:43.636Z,21.49
2022-08-24T02:40:12.418Z,21.57
2022-08-24T02:42:51.426Z,21.53
2022-08-24T02:45:19.413Z,21.49
2022-08-24T02:47:48.818Z,21.45
2022-08-24T02:50:17.701Z,21.44
2022-08-24T02:52:45.248Z,21.50
2022-08-24T02:55:15.309Z,21.52
2022-08-24T02:57:47.977Z,21.56
2022-08-24T03:00:21.295Z,21.48
2022-08-24T03:02:50.192Z,21.44
2022-08-24T03:05:18.077Z,21.44
2022-08-24T03:07:45.586Z,21.49
2022-08-24T03:10:13.399Z,21.44
2022-08-24T03:12:41.525Z,21.35
2022-08-24T03:15:12.184Z,21.29
2022-08-24T03:17:41.122Z,21.26
2022-08-24T03:20:14.446Z,21.20
2022-08-24T03:22:42.690Z,21.11
2022-08-24T03:25:11.266Z,21.19
2022-08-24T03:27:39.110Z,21.19
2022-08-24T03:30:12.736Z,21.11
2022-08-24T03:32:40.598Z,21.06
2022-08-24T03:35:09.151Z,21.05
2022-08-24T03:37:38.378Z,20.97
2022-08-24T03:40:06.642Z,20.99
2022-08-24T03:42:40.815Z,20.93
2022-08-24T03:45:10.088Z,20.93
2022-08-24T03:47:40.272Z,20.88
2022-08-24T03:50:12.962Z,20.67
2022-08-24T03:52:42.146Z,20.55
2022-08-24T03:55:10.867Z,20.67
2022-08-24T03:57:38.702Z,20.57
2022-08-24T04:00:09.525Z,20.33
2022-08-24T04:02:37.302Z,20.38
2022-08-24T04:05:05.534Z,20.38
2022-08-24T04:07:33.002Z,20.69
2022-08-24T04:10:01.978Z,20.62
2022-08-24T04:12:29.574Z,20.74
2022-08-24T04:14:57.062Z,20.74
2022-08-24T04:17:24.669Z,20.76
2022-08-24T04:20:01.000Z,20.65
2022-08-24T04:22:31.768Z,20.62
2022-08-24T04:24:59.357Z,20.62
2022-08-24T04:27:28.317Z,20.57
2022-08-24T04:29:55.826Z,20.54
2022-08-24T04:32:23.359Z,20.53
2022-08-24T04:34:51.172Z,20.48
2022-08-24T04:37:18.657Z,20.47
2022-08-24T04:39:54.682Z,20.51
2022-08-24T04:42:22.212Z,20.38
2022-08-24T04:44:51.967Z,20.41
2022-08-24T04:47:19.457Z,20.44
2022-08-24T04:49:46.952Z,20.47
2022-08-24T04:52:14.735Z,20.48
2022-08-24T04:54:42.274Z,20.46
2022-08-24T04:57:10.981Z,20.52
2022-08-24T04:59:41.069Z,20.55
2022-08-24T05:02:09.924Z,20.50
2022-08-24T05:04:38.220Z,20.52
2022-08-24T05:07:06.268Z,20.50
2022-08-24T05:09:34.072Z,20.51
2022-08-24T05:12:02.732Z,20.49
2022-08-24T05:14:30.196Z,20.46
2022-08-24T05:16:57.710Z,20.38
2022-08-24T05:19:26.561Z,20.40
2022-08-24T05:21:54.157Z,20.52
2022-08-24T05:24:21.882Z,20.57
2022-08-24T05:26:49.828Z,20.60
2022-08-24T05:29:18.930Z,20.56
2022-08-24T05:31:47.169Z,20.71
2022-08-24T05:34:15.120Z,20.72
2022-08-24T05:36:44.267Z,20.73
2022-08-24T05:39:13.387Z,20.74
2022-08-24T05:41:44.234Z,20.87
2022-08-24T05:44:12.597Z,20.84
2022-08-24T05:46:40.183Z,20.87
2022-08-24T05:49:08.293Z,20.91
2022-08-24T05:51:36.483Z,20.99
2022-08-24T05:54:06.324Z,21.00
2022-08-24T05:56:33.852Z,21.03
2022-08-24T05:59:01.500Z,21.07
2022-08-24T06:01:29.764Z,21.08
2022-08-24T06:03:57.866Z,21.08
2022-08-24T06:06:26.593Z,21.10
2022-08-24T06:08:56.019Z,21.11
2022-08-24T06:11:29.837Z,21.17
2022-08-24T06:14:00.624Z,21.18
2022-08-24T06:16:28.205Z,21.15
2022-08-24T06:18:55.800Z,21.16
2022-08-24T06:21:28.210Z,21.20
2022-08-24T06:23:56.697Z,21.26
2022-08-24T06:26:44.150Z,21.25
2022-08-24T06:29:16.699Z,21.23
2022-08-24T06:31:46.179Z,21.16
2022-08-24T06:34:17.350Z,21.19
2022-08-24T06:36:45.012Z,21.27
2022-08-24T06:39:14.100Z,21.29
2022-08-24T06:41:44.006Z,21.36
2022-08-24T06:44:11.550Z,21.41
2022-08-24T06:46:39.289Z,21.53
2022-08-24T06:49:07.947Z,21.56
2022-08-24T06:51:35.520Z,21.62
2022-08-24T06:54:02.999Z,21.69
2022-08-24T06:56:30.482Z,21.84
2022-08-24T06:59:00.804Z,21.93
2022-08-24T07:01:28.650Z,22.06
2022-08-24T07:03:57.133Z,22.16
2022-08-24T07:06:25.364Z,22.19
2022-08-24T07:08:53.254Z,22.34
2022-08-24T07:11:21.910Z,22.42
2022-08-24T07:13:50.411Z,22.40
2022-08-24T07:16:39.712Z,22.46
2022-08-24T07:19:07.650Z,22.52
2022-08-24T07:21:35.238Z,22.52
2022-08-24T07:24:03.283Z,22.54
2022-08-24T07:26:31.948Z,22.64
2022-08-24T07:29:05.162Z,22.66
2022-08-24T07:31:35.603Z,22.75
2022-08-24T07:34:03.678Z,22.78
2022-08-24T07:36:31.702Z,22.87
2022-08-24T07:38:59.959Z,22.87
2022-08-24T07:42:02.522Z,22.85
2022-08-24T07:44:16.368Z,22.99
2022-08-24T07:46:45.504Z,23.14
2022-08-24T07:49:31.468Z,23.18
2022-08-24T07:52:00.593Z,23.25
2022-08-24T07:54:28.748Z,23.30
2022-08-24T07:56:56.458Z,23.32
2022-08-24T07:59:24.043Z,23.38
2022-08-24T08:01:52.948Z,23.39
2022-08-24T08:04:24.984Z,23.46
2022-08-24T08:06:52.782Z,23.47
2022-08-24T08:09:20.695Z,23.58
2022-08-24T08:11:49.254Z,23.62
2022-08-24T08:14:16.820Z,23.74
2022-08-24T08:16:44.416Z,23.85
2022-08-24T08:19:13.289Z,23.86
2022-08-24T08:22:02.146Z,23.86
2022-08-24T08:24:29.756Z,24.06
2022-08-24T08:26:59.263Z,24.15
2022-08-24T08:29:27.291Z,24.14
2022-08-24T08:31:55.825Z,24.17
2022-08-24T08:34:24.681Z,24.22
2022-08-24T08:36:52.505Z,24.26
2022-08-24T08:39:22.255Z,24.46
2022-08-24T08:42:10.772Z,24.48
2022-08-24T08:45:07.345Z,24.52
2022-08-24T08:50:47.575Z,24.68
2022-08-24T08:53:40.069Z,24.68
2022-08-24T08:56:12.216Z,24.83
2022-08-24T08:58:57.502Z,24.93
2022-08-24T09:01:32.801Z,24.93
2022-08-24T09:04:26.421Z,25.06
2022-08-24T09:07:19.041Z,25.02
2022-08-24T09:10:10.605Z,25.10
2022-08-24T09:12:45.870Z,25.24
2022-08-24T09:15:34.676Z,25.31
2022-08-24T09:18:12.940Z,25.31
2022-08-24T09:20:56.434Z,25.39
2022-08-24T09:23:30.429Z,25.47
2022-08-24T09:26:03.589Z,25.63
2022-08-24T09:28:43.840Z,25.68
2022-08-24T09:31:24.911Z,25.79
2022-08-24T09:34:08.473Z,25.86
2022-08-24T09:36:54.860Z,25.99
2022-08-24T09:39:37.905Z,26.04
2022-08-24T09:42:39.409Z,26.11
2022-08-24T09:45:27.286Z,26.29
2022-08-24T09:48:21.790Z,26.33
2022-08-24T09:51:26.738Z,26.44
2022-08-24T09:54:24.684Z,26.57
2022-08-24T09:57:12.622Z,26.71
2022-08-24T09:59:56.357Z,26.87
2022-08-24T10:02:37.609Z,26.94
2022-08-24T10:05:12.255Z,27.03
2022-08-24T10:07:48.055Z,27.08
2022-08-24T10:10:25.799Z,27.12
2022-08-24T10:13:04.033Z,27.25
2022-08-24T10:15:35.609Z,27.30
2022-08-24T10:18:16.917Z,27.45
2022-08-24T10:20:53.452Z,27.54
2022-08-24T10:23:41.681Z,27.65
2022-08-24T10:26:15.825Z,27.62
2022-08-24T10:28:59.291Z,27.72
2022-08-24T10:31:32.075Z,27.82
2022-08-24T10:34:06.690Z,27.89
2022-08-24T10:36:59.424Z,27.91
2022-08-24T10:39:52.967Z,27.98
2022-08-24T10:42:58.961Z,27.94
2022-08-24T10:46:05.328Z,28.08
2022-08-24T10:48:48.620Z,28.24
2022-08-24T10:51:27.089Z,28.17
2022-08-24T10:53:56.789Z,28.30
2022-08-24T10:56:31.506Z,28.29
2022-08-24T10:59:16.240Z,28.44
2022-08-24T11:02:00.890Z,28.55
2022-08-24T11:04:33.100Z,28.65
2022-08-24T11:07:11.069Z,28.60
2022-08-24T11:09:49.294Z,28.65
2022-08-24T11:12:26.237Z,28.67
2022-08-24T11:14:54.979Z,28.68
2022-08-24T11:17:24.589Z,28.75
2022-08-24T11:19:53.679Z,28.85
2022-08-24T11:22:34.193Z,28.87
2022-08-24T11:25:05.893Z,28.90
2022-08-24T11:27:36.802Z,28.97
2022-08-24T11:30:10.076Z,28.98
2022-08-24T11:32:45.469Z,29.02
2022-08-24T11:35:21.220Z,29.21
2022-08-24T11:37:51.449Z,29.27
2022-08-24T11:40:20.840Z,29.31
2022-08-24T11:43:01.225Z,29.30
2022-08-24T11:45:35.704Z,29.33
2022-08-24T11:48:12.437Z,29.54
2022-08-24T11:50:45.957Z,29.60
2022-08-24T11:53:21.848Z,29.59
2022-08-24T11:55:57.556Z,29.64
2022-08-24T11:58:38.893Z,29.74
2022-08-24T12:01:09.684Z,29.72
2022-08-24T12:04:00.124Z,29.84
2022-08-24T12:06:37.848Z,29.97
2022-08-24T12:09:12.616Z,30.08
2022-08-24T12:11:44.285Z,30.10
2022-08-24T12:14:18.086Z,30.17
2022-08-24T12:16:51.570Z,30.15
2022-08-24T12:19:22.071Z,30.06
2022-08-24T12:21:54.517Z,30.17
2022-08-24T12:24:26.424Z,30.13
2022-08-24T12:26:58.060Z,30.22
2022-08-24T12:29:30.364Z,30.36
2022-08-24T12:31:59.658Z,30.51
2022-08-24T12:34:32.409Z,30.54
2022-08-24T12:37:04.975Z,30.56
2022-08-24T12:39:46.262Z,30.63
2022-08-24T12:42:18.253Z,30.54
2022-08-24T12:44:50.295Z,30.61
2022-08-24T12:47:29.259Z,30.60
2022-08-24T12:50:03.745Z,30.71
2022-08-24T12:52:49.298Z,30.67
2022-08-24T12:55:26.389Z,30.72
2022-08-24T12:58:01.725Z,30.78
2022-08-24T13:00:33.781Z,30.73
2022-08-24T13:03:03.754Z,30.80
2022-08-24T13:05:41.477Z,30.54
2022-08-24T13:08:16.466Z,30.81
2022-08-24T13:10:46.691Z,30.70
2022-08-24T13:13:22.309Z,30.74
2022-08-24T13:16:03.706Z,30.85
2022-08-24T13:19:07.258Z,30.86
2022-08-24T13:21:41.389Z,30.92
2022-08-24T13:24:50.169Z,30.89
2022-08-24T13:27:50.720Z,30.77
2022-08-24T13:30:50.958Z,30.79
2022-08-24T13:33:20.578Z,30.80
2022-08-24T13:36:00.337Z,30.98
2022-08-24T13:38:53.834Z,31.13
2022-08-24T13:41:33.551Z,31.26
2022-08-24T13:44:08.323Z,31.15
2022-08-24T13:46:47.513Z,31.08
2022-08-24T13:50:02.913Z,31.24
2022-08-24T13:53:13.163Z,31.39
2022-08-24T13:57:06.986Z,31.28
2022-08-24T13:59:44.919Z,31.23
2022-08-24T14:02:35.440Z,31.16
2022-08-24T14:06:33.850Z,31.30
2022-08-24T14:09:44.388Z,31.33
2022-08-24T14:13:37.051Z,31.45
2022-08-24T14:17:19.689Z,31.59
2022-08-24T14:20:22.051Z,31.62
2022-08-24T14:23:36.112Z,31.62
2022-08-24T14:27:02.205Z,31.60
2022-08-24T14:30:30.496Z,31.65
2022-08-24T14:33:45.561Z,31.73
2022-08-24T14:37:54.649Z,31.84
2022-08-24T14:40:12.969Z,31.86
2022-08-24T14:46:24.603Z,31.81
2022-08-24T14:49:28.458Z,31.94
2022-08-24T14:52:58.372Z,31.74
2022-08-24T14:56:54.521Z,31.86
2022-08-24T15:00:37.547Z,32.02
2022-08-24T15:03:39.223Z,31.83
2022-08-24T15:09:56.690Z,31.97
2022-08-24T15:14:09.547Z,31.88
2022-08-24T15:16:43.300Z,32.01
2022-08-24T15:23:13.721Z,32.22
2022-08-24T15:26:01.572Z,32.09
2022-08-24T15:38:50.055Z,32.03
2022-08-24T15:44:55.410Z,32.04
2022-08-24T15:47:56.552Z,31.97
2022-08-24T15:51:22.581Z,31.82
2022-08-24T15:53:50.130Z,31.91
2022-08-24T15:57:22.889Z,32.13
2022-08-24T16:00:50.139Z,32.13
2022-08-24T16:03:50.405Z,32.19
2022-08-24T16:06:24.386Z,32.10
2022-08-24T16:09:20.252Z,32.09
2022-08-24T16:11:51.098Z,32.15
2022-08-24T16:14:27.606Z,32.20
2022-08-24T16:16:57.447Z,32.31
2022-08-24T16:19:27.166Z,32.34
2022-08-24T16:21:59.013Z,32.37
2022-08-24T16:24:32.845Z,32.33
2022-08-24T16:27:07.226Z,32.26
2022-08-24T16:29:55.550Z,32.20
2022-08-24T16:32:29.947Z,32.00
2022-08-24T16:35:19.907Z,32.04
2022-08-24T16:37:47.505Z,32.24
2022-08-24T16:40:15.888Z,32.20
2022-08-24T16:42:43.511Z,32.12
2022-08-24T16:45:14.849Z,32.01
2022-08-24T16:47:43.802Z,31.96
2022-08-24T16:50:11.359Z,31.85
2022-08-24T16:52:38.859Z,31.90
2022-08-24T16:55:07.441Z,31.89
2022-08-24T16:57:36.347Z,31.81
2022-08-24T17:00:07.122Z,31.81
2022-08-24T17:02:34.689Z,31.80
2022-08-24T17:05:04.167Z,31.77
2022-08-24T17:07:33.096Z,31.70
2022-08-24T17:10:02.373Z,31.78
2022-08-24T17:12:31.147Z,31.73
2022-08-24T17:14:58.916Z,31.62
2022-08-24T17:17:26.593Z,31.70
2022-08-24T17:19:55.017Z,31.67
2022-08-24T17:22:24.520Z,31.65
2022-08-24T17:24:52.677Z,31.54
2022-08-24T17:27:22.492Z,31.48
2022-08-24T17:29:50.018Z,31.41
2022-08-24T17:32:17.532Z,31.40
2022-08-24T17:34:45.014Z,31.24
2022-08-24T17:37:12.933Z,31.22
2022-08-24T17:39:41.762Z,31.11
2022-08-24T17:42:27.994Z,30.97
2022-08-24T17:44:56.879Z,31.02
2022-08-24T17:47:24.410Z,30.97
2022-08-24T17:49:51.885Z,30.94
2022-08-24T17:52:19.390Z,30.87
2022-08-24T17:54:48.216Z,30.82
2022-08-24T17:57:15.982Z,30.83
2022-08-24T17:59:43.987Z,30.72
2022-08-24T18:02:12.917Z,30.63
2022-08-24T18:04:41.023Z,30.61
2022-08-24T18:07:11.746Z,30.48
2022-08-24T18:09:42.350Z,30.47
2022-08-24T18:12:11.266Z,30.44
2022-08-24T18:14:52.438Z,30.35
2022-08-24T18:17:28.336Z,30.15
2022-08-24T18:20:16.606Z,30.14
2022-08-24T18:25:48.995Z,29.99
2022-08-24T18:28:23.930Z,29.88
2022-08-24T18:31:04.026Z,29.67
2022-08-24T18:33:40.467Z,29.60
2022-08-24T18:36:16.368Z,29.32
2022-08-24T18:38:48.787Z,29.26
2022-08-24T18:41:17.667Z,29.08
2022-08-24T18:58:27.306Z,28.74
2022-08-24T19:07:53.240Z,28.04
2022-08-24T19:11:25.940Z,27.80
2022-08-24T19:32:55.452Z,26.96
2022-08-24T19:40:47.955Z,26.64
2022-08-24T19:51:59.205Z,26.31
2022-08-24T19:55:03.028Z,26.09
2022-08-24T20:01:15.128Z,25.87
2022-08-24T20:15:40.303Z,25.40
2022-08-24T21:16:16.877Z,23.72
2022-08-24T21:19:27.688Z,23.56
2022-08-24T21:22:20.589Z,23.56
2022-08-24T21:25:38.440Z,23.59
2022-08-24T21:28:35.645Z,23.70
2022-08-24T21:38:12.824Z,24.83
